sensor_id;sensor_type;location;lat;lon;timestamp;pressure;altitude;pressure_sealevel;temperature;humidity
7105;BME280;3594;42.152;24.714;2023-07-08T00:00:23;62041.28;;;23.69;nan
7105;BME280;3594;42.152;24.714;2023-07-08T00:02:50;61931.03;;;22.95;nan
7105;BME280;3594;42.152;24.714;2023-07-08T00:05:18;62170.94;;;23.50;nan
7105;BME280;3594;42.152;24.714;2023-07-08T00:07:44;62007.50;;;23.21;nan
7105;BME280;3594;42.152;24.714;2023-07-08T00:10:20;62117.75;;;23.72;nan
7105;BME280;3594;42.152;24.714;2023-07-08T00:12:49;62091.22;;;23.79;nan
7105;BME280;3594;42.152;24.714;2023-07-08T00:15:15;62120.50;;;23.80;nan
7105;BME280;3594;42.152;24.714;2023-07-08T00:17:42;62055.38;;;23.47;nan
7105;BME280;3594;42.152;24.714;2023-07-08T00:20:22;61955.13;;;23.46;nan
7105;BME280;3594;42.152;24.714;2023-07-08T00:22:48;62099.06;;;23.79;nan
7105;BME280;3594;42.152;24.714;2023-07-08T00:25:17;62192.06;;;23.53;nan
7105;BME280;3594;42.152;24.714;2023-07-08T00:27:45;62075.00;;;23.78;nan
7105;BME280;3594;42.152;24.714;2023-07-08T00:30:21;62162.28;;;23.63;nan
7105;BME280;3594;42.152;24.714;2023-07-08T00:32:47;62094.44;;;23.63;nan
7105;BME280;3594;42.152;24.714;2023-07-08T00:35:20;62177.22;;;23.56;nan
7105;BME280;3594;42.152;24.714;2023-07-08T00:37:46;62109.16;;;23.81;nan
7105;BME280;3594;42.152;24.714;2023-07-08T00:40:15;62096.13;;;23.81;nan
7105;BME280;3594;42.152;24.714;2023-07-08T00:42:43;62032.47;;;23.48;nan
7105;BME280;3594;42.152;24.714;2023-07-08T00:45:35;62157.94;;;23.78;nan
7105;BME280;3594;42.152;24.714;2023-07-08T00:48:12;62078.78;;;23.63;nan
7105;BME280;3594;42.152;24.714;2023-07-08T00:50:40;61978.97;;;23.28;nan
7105;BME280;3594;42.152;24.714;2023-07-08T00:53:29;61974.06;;;23.26;nan
7105;BME280;3594;42.152;24.714;2023-07-08T00:56:08;62136.56;;;23.29;nan
7105;BME280;3594;42.152;24.714;2023-07-08T00:58:39;62075.25;;;23.37;nan
7105;BME280;3594;42.152;24.714;2023-07-08T01:01:06;62078.97;;;23.54;nan
7105;BME280;3594;42.152;24.714;2023-07-08T01:03:38;62101.16;;;23.62;nan
7105;BME280;3594;42.152;24.714;2023-07-08T01:06:05;62027.00;;;23.45;nan
7105;BME280;3594;42.152;24.714;2023-07-08T01:08:32;62147.41;;;23.22;nan
7105;BME280;3594;42.152;24.714;2023-07-08T01:11:02;62036.31;;;23.44;nan
7105;BME280;3594;42.152;24.714;2023-07-08T01:13:32;62114.84;;;22.50;nan
7105;BME280;3594;42.152;24.714;2023-07-08T01:15:59;62031.16;;;23.40;nan
7105;BME280;3594;42.152;24.714;2023-07-08T01:18:25;62124.75;;;23.25;nan
7105;BME280;3594;42.152;24.714;2023-07-08T01:20:51;62314.19;;;23.11;nan
7105;BME280;3594;42.152;24.714;2023-07-08T01:23:20;61997.47;;;23.30;nan
7105;BME280;3594;42.152;24.714;2023-07-08T01:25:46;62066.28;;;23.36;nan
7105;BME280;3594;42.152;24.714;2023-07-08T01:28:13;61971.03;;;22.93;nan
7105;BME280;3594;42.152;24.714;2023-07-08T01:30:41;61984.38;;;23.19;nan
7105;BME280;3594;42.152;24.714;2023-07-08T01:33:20;62031.41;;;23.14;nan
7105;BME280;3594;42.152;24.714;2023-07-08T01:35:47;61977.78;;;22.87;nan
7105;BME280;3594;42.152;24.714;2023-07-08T01:38:18;61959.22;;;22.89;nan
7105;BME280;3594;42.152;24.714;2023-07-08T01:40:52;62023.91;;;23.12;nan
7105;BME280;3594;42.152;24.714;2023-07-08T01:43:18;62081.38;;;22.92;nan
7105;BME280;3594;42.152;24.714;2023-07-08T01:45:44;62005.13;;;23.23;nan
7105;BME280;3594;42.152;24.714;2023-07-08T01:48:14;62028.69;;;23.19;nan
7105;BME280;3594;42.152;24.714;2023-07-08T01:50:58;62008.44;;;23.03;nan
7105;BME280;3594;42.152;24.714;2023-07-08T01:53:40;62227.75;;;23.01;nan
7105;BME280;3594;42.152;24.714;2023-07-08T01:56:06;61960.22;;;22.67;nan
7105;BME280;3594;42.152;24.714;2023-07-08T01:58:32;62026.38;;;23.05;nan
7105;BME280;3594;42.152;24.714;2023-07-08T02:00:57;62015.06;;;23.07;nan
7105;BME280;3594;42.152;24.714;2023-07-08T02:03:23;61956.78;;;22.80;nan
7105;BME280;3594;42.152;24.714;2023-07-08T02:05:49;62024.44;;;23.01;nan
7105;BME280;3594;42.152;24.714;2023-07-08T02:08:14;62292.72;;;22.94;nan
7105;BME280;3594;42.152;24.714;2023-07-08T02:10:42;61985.81;;;22.78;nan
7105;BME280;3594;42.152;24.714;2023-07-08T02:13:07;61967.41;;;22.99;nan
7105;BME280;3594;42.152;24.714;2023-07-08T02:15:33;61996.44;;;22.97;nan
7105;BME280;3594;42.152;24.714;2023-07-08T02:17:58;62020.94;;;23.03;nan
7105;BME280;3594;42.152;24.714;2023-07-08T02:20:24;61936.66;;;22.60;nan
7105;BME280;3594;42.152;24.714;2023-07-08T02:22:49;62042.06;;;22.57;nan
7105;BME280;3594;42.152;24.714;2023-07-08T02:25:14;61980.53;;;22.95;nan
7105;BME280;3594;42.152;24.714;2023-07-08T02:27:41;62062.44;;;22.52;nan
7105;BME280;3594;42.152;24.714;2023-07-08T02:30:07;61927.69;;;22.59;nan
7105;BME280;3594;42.152;24.714;2023-07-08T02:32:33;61963.50;;;22.79;nan
7105;BME280;3594;42.152;24.714;2023-07-08T02:35:04;61941.34;;;22.71;nan
7105;BME280;3594;42.152;24.714;2023-07-08T02:37:29;61968.06;;;22.67;nan
7105;BME280;3594;42.152;24.714;2023-07-08T02:39:55;62277.06;;;22.78;nan
7105;BME280;3594;42.152;24.714;2023-07-08T02:42:21;61800.84;;;21.83;nan
7105;BME280;3594;42.152;24.714;2023-07-08T02:44:46;61911.75;;;22.33;nan
7105;BME280;3594;42.152;24.714;2023-07-08T02:47:12;62255.63;;;22.57;nan
7105;BME280;3594;42.152;24.714;2023-07-08T02:49:37;61974.25;;;22.61;nan
7105;BME280;3594;42.152;24.714;2023-07-08T02:52:03;61950.81;;;22.61;nan
7105;BME280;3594;42.152;24.714;2023-07-08T02:54:28;62046.53;;;22.49;nan
7105;BME280;3594;42.152;24.714;2023-07-08T02:56:53;62059.00;;;22.81;nan
7105;BME280;3594;42.152;24.714;2023-07-08T02:59:19;62034.81;;;22.57;nan
7105;BME280;3594;42.152;24.714;2023-07-08T03:01:44;62035.00;;;22.48;nan
7105;BME280;3594;42.152;24.714;2023-07-08T03:04:12;62036.28;;;22.56;nan
7105;BME280;3594;42.152;24.714;2023-07-08T03:06:42;62029.66;;;22.85;nan
7105;BME280;3594;42.152;24.714;2023-07-08T03:09:08;62000.06;;;22.75;nan
7105;BME280;3594;42.152;24.714;2023-07-08T03:11:35;62054.13;;;22.79;nan
7105;BME280;3594;42.152;24.714;2023-07-08T03:14:02;61961.94;;;22.69;nan
7105;BME280;3594;42.152;24.714;2023-07-08T03:16:28;62029.06;;;22.40;nan
7105;BME280;3594;42.152;24.714;2023-07-08T03:18:53;61923.63;;;22.32;nan
7105;BME280;3594;42.152;24.714;2023-07-08T03:23:44;62020.09;;;22.39;nan
7105;BME280;3594;42.152;24.714;2023-07-08T03:26:15;61935.75;;;22.62;nan
7105;BME280;3594;42.152;24.714;2023-07-08T03:28:41;62055.66;;;22.73;nan
7105;BME280;3594;42.152;24.714;2023-07-08T03:31:08;61937.31;;;22.56;nan
7105;BME280;3594;42.152;24.714;2023-07-08T03:33:34;62129.72;;;22.42;nan
7105;BME280;3594;42.152;24.714;2023-07-08T03:36:00;61882.28;;;22.30;nan
7105;BME280;3594;42.152;24.714;2023-07-08T03:38:26;61942.34;;;22.65;nan
7105;BME280;3594;42.152;24.714;2023-07-08T03:40:51;61976.81;;;22.50;nan
7105;BME280;3594;42.152;24.714;2023-07-08T03:43:17;62080.50;;;22.61;nan
7105;BME280;3594;42.152;24.714;2023-07-08T03:45:43;61918.72;;;22.46;nan
7105;BME280;3594;42.152;24.714;2023-07-08T03:48:10;61890.38;;;22.17;nan
7105;BME280;3594;42.152;24.714;2023-07-08T03:50:37;61971.97;;;22.59;nan
7105;BME280;3594;42.152;24.714;2023-07-08T03:53:02;61897.13;;;22.27;nan
7105;BME280;3594;42.152;24.714;2023-07-08T03:55:28;61871.91;;;21.86;nan
7105;BME280;3594;42.152;24.714;2023-07-08T03:57:53;61843.91;;;22.26;nan
7105;BME280;3594;42.152;24.714;2023-07-08T04:00:19;61969.22;;;22.52;nan
7105;BME280;3594;42.152;24.714;2023-07-08T04:02:48;61977.09;;;22.64;nan
7105;BME280;3594;42.152;24.714;2023-07-08T04:05:22;61957.72;;;22.63;nan
7105;BME280;3594;42.152;24.714;2023-07-08T04:07:50;62061.38;;;22.46;nan
7105;BME280;3594;42.152;24.714;2023-07-08T04:10:16;61885.94;;;22.64;nan
7105;BME280;3594;42.152;24.714;2023-07-08T04:12:42;62007.06;;;23.00;nan
7105;BME280;3594;42.152;24.714;2023-07-08T04:15:09;61963.06;;;22.86;nan
7105;BME280;3594;42.152;24.714;2023-07-08T04:17:37;61973.38;;;22.90;nan
7105;BME280;3594;42.152;24.714;2023-07-08T04:20:07;62022.13;;;23.15;nan
7105;BME280;3594;42.152;24.714;2023-07-08T04:22:33;62141.53;;;23.87;nan
7105;BME280;3594;42.152;24.714;2023-07-08T04:24:59;62229.84;;;24.53;nan
7105;BME280;3594;42.152;24.714;2023-07-08T04:27:24;62206.84;;;24.42;nan
7105;BME280;3594;42.152;24.714;2023-07-08T04:29:49;62135.81;;;24.26;nan
7105;BME280;3594;42.152;24.714;2023-07-08T04:32:15;62091.72;;;23.96;nan
7105;BME280;3594;42.152;24.714;2023-07-08T04:34:40;62471.00;;;24.24;nan
7105;BME280;3594;42.152;24.714;2023-07-08T04:37:05;62165.91;;;24.29;nan
7105;BME280;3594;42.152;24.714;2023-07-08T04:39:31;62213.75;;;24.60;nan
7105;BME280;3594;42.152;24.714;2023-07-08T04:41:57;62288.53;;;25.22;nan
7105;BME280;3594;42.152;24.714;2023-07-08T04:44:22;62445.81;;;26.24;nan
7105;BME280;3594;42.152;24.714;2023-07-08T04:46:52;62473.28;;;26.60;nan
7105;BME280;3594;42.152;24.714;2023-07-08T04:49:19;62451.34;;;26.50;nan
7105;BME280;3594;42.152;24.714;2023-07-08T04:51:45;62570.09;;;26.69;nan
7105;BME280;3594;42.152;24.714;2023-07-08T04:54:11;62524.19;;;27.05;nan
7105;BME280;3594;42.152;24.714;2023-07-08T04:56:40;62454.50;;;26.66;nan
7105;BME280;3594;42.152;24.714;2023-07-08T04:59:09;62512.97;;;26.97;nan
7105;BME280;3594;42.152;24.714;2023-07-08T05:01:34;62548.81;;;26.99;nan
7105;BME280;3594;42.152;24.714;2023-07-08T05:04:00;62510.69;;;26.67;nan
7105;BME280;3594;42.152;24.714;2023-07-08T05:06:26;62450.50;;;26.74;nan
7105;BME280;3594;42.152;24.714;2023-07-08T05:08:52;62539.09;;;26.90;nan
7105;BME280;3594;42.152;24.714;2023-07-08T05:11:18;62550.84;;;26.98;nan
7105;BME280;3594;42.152;24.714;2023-07-08T05:13:43;62618.66;;;27.72;nan
7105;BME280;3594;42.152;24.714;2023-07-08T05:16:08;62873.09;;;27.25;nan
7105;BME280;3594;42.152;24.714;2023-07-08T05:18:34;62456.22;;;26.68;nan
7105;BME280;3594;42.152;24.714;2023-07-08T05:20:59;62439.69;;;26.37;nan
7105;BME280;3594;42.152;24.714;2023-07-08T05:23:25;62584.50;;;26.33;nan
7105;BME280;3594;42.152;24.714;2023-07-08T05:25:50;62520.63;;;26.95;nan
7105;BME280;3594;42.152;24.714;2023-07-08T05:28:16;62511.28;;;26.96;nan
7105;BME280;3594;42.152;24.714;2023-07-08T05:30:41;62895.94;;;27.55;nan
7105;BME280;3594;42.152;24.714;2023-07-08T05:33:08;62616.00;;;27.60;nan
7105;BME280;3594;42.152;24.714;2023-07-08T05:35:34;62715.13;;;27.64;nan
7105;BME280;3594;42.152;24.714;2023-07-08T05:37:59;62648.69;;;27.73;nan
7105;BME280;3594;42.152;24.714;2023-07-08T05:40:25;62549.69;;;27.64;nan
7105;BME280;3594;42.152;24.714;2023-07-08T05:42:50;62635.69;;;27.80;nan
7105;BME280;3594;42.152;24.714;2023-07-08T05:45:16;62707.50;;;27.67;nan
7105;BME280;3594;42.152;24.714;2023-07-08T05:47:41;62563.09;;;27.11;nan
7105;BME280;3594;42.152;24.714;2023-07-08T05:50:07;62570.94;;;27.00;nan
7105;BME280;3594;42.152;24.714;2023-07-08T05:52:33;62513.31;;;26.67;nan
7105;BME280;3594;42.152;24.714;2023-07-08T05:54:59;62672.38;;;26.36;nan
7105;BME280;3594;42.152;24.714;2023-07-08T05:57:24;62514.00;;;26.35;nan
7105;BME280;3594;42.152;24.714;2023-07-08T05:59:49;62396.09;;;26.19;nan
7105;BME280;3594;42.152;24.714;2023-07-08T06:02:16;62429.03;;;26.18;nan
7105;BME280;3594;42.152;24.714;2023-07-08T06:04:42;62440.25;;;26.26;nan
7105;BME280;3594;42.152;24.714;2023-07-08T06:07:07;62405.72;;;25.93;nan
7105;BME280;3594;42.152;24.714;2023-07-08T06:09:33;62429.28;;;25.65;nan
7105;BME280;3594;42.152;24.714;2023-07-08T06:11:58;62413.38;;;26.02;nan
7105;BME280;3594;42.152;24.714;2023-07-08T06:14:24;62418.88;;;26.16;nan
7105;BME280;3594;42.152;24.714;2023-07-08T06:16:50;62464.16;;;26.24;nan
7105;BME280;3594;42.152;24.714;2023-07-08T06:19:15;62445.59;;;26.21;nan
7105;BME280;3594;42.152;24.714;2023-07-08T06:21:42;62503.09;;;25.98;nan
7105;BME280;3594;42.152;24.714;2023-07-08T06:24:08;62707.91;;;26.03;nan
7105;BME280;3594;42.152;24.714;2023-07-08T06:26:34;62329.28;;;25.88;nan
7105;BME280;3594;42.152;24.714;2023-07-08T06:28:59;62515.53;;;26.02;nan
7105;BME280;3594;42.152;24.714;2023-07-08T06:31:25;62490.94;;;26.24;nan
7105;BME280;3594;42.152;24.714;2023-07-08T06:33:50;62466.81;;;26.35;nan
7105;BME280;3594;42.152;24.714;2023-07-08T06:36:16;62485.69;;;26.24;nan
7105;BME280;3594;42.152;24.714;2023-07-08T06:38:41;62429.88;;;26.21;nan
7105;BME280;3594;42.152;24.714;2023-07-08T06:41:07;62399.53;;;26.22;nan
7105;BME280;3594;42.152;24.714;2023-07-08T06:43:32;62719.91;;;26.34;nan
7105;BME280;3594;42.152;24.714;2023-07-08T06:45:58;62581.31;;;26.16;nan
7105;BME280;3594;42.152;24.714;2023-07-08T06:48:23;62761.00;;;26.31;nan
7105;BME280;3594;42.152;24.714;2023-07-08T06:50:49;62507.50;;;26.67;nan
7105;BME280;3594;42.152;24.714;2023-07-08T06:53:15;62540.56;;;26.89;nan
7105;BME280;3594;42.152;24.714;2023-07-08T06:55:41;62651.34;;;27.01;nan
7105;BME280;3594;42.152;24.714;2023-07-08T06:58:08;62592.91;;;27.21;nan
7105;BME280;3594;42.152;24.714;2023-07-08T07:00:34;62616.34;;;27.31;nan
7105;BME280;3594;42.152;24.714;2023-07-08T07:02:59;62592.53;;;27.12;nan
7105;BME280;3594;42.152;24.714;2023-07-08T07:05:24;62437.59;;;26.54;nan
7105;BME280;3594;42.152;24.714;2023-07-08T07:07:50;62818.84;;;26.92;nan
7105;BME280;3594;42.152;24.714;2023-07-08T07:10:18;62533.38;;;26.97;nan
7105;BME280;3594;42.152;24.714;2023-07-08T07:12:44;62611.06;;;26.91;nan
7105;BME280;3594;42.152;24.714;2023-07-08T07:15:09;62498.78;;;26.80;nan
7105;BME280;3594;42.152;24.714;2023-07-08T07:17:35;62742.59;;;27.17;nan
7105;BME280;3594;42.152;24.714;2023-07-08T07:20:01;62628.66;;;27.55;nan
7105;BME280;3594;42.152;24.714;2023-07-08T07:22:27;62633.63;;;27.69;nan
7105;BME280;3594;42.152;24.714;2023-07-08T07:24:53;62755.56;;;27.70;nan
7105;BME280;3594;42.152;24.714;2023-07-08T07:27:19;62632.84;;;27.78;nan
7105;BME280;3594;42.152;24.714;2023-07-08T07:29:49;62692.75;;;27.45;nan
7105;BME280;3594;42.152;24.714;2023-07-08T07:32:16;62789.91;;;27.45;nan
7105;BME280;3594;42.152;24.714;2023-07-08T07:34:42;62671.25;;;27.12;nan
7105;BME280;3594;42.152;24.714;2023-07-08T07:37:13;62811.09;;;27.03;nan
7105;BME280;3594;42.152;24.714;2023-07-08T07:39:39;62566.72;;;27.05;nan
7105;BME280;3594;42.152;24.714;2023-07-08T07:42:05;62559.22;;;27.15;nan
7105;BME280;3594;42.152;24.714;2023-07-08T07:44:30;62528.78;;;27.20;nan
7105;BME280;3594;42.152;24.714;2023-07-08T07:46:56;62682.47;;;27.47;nan
7105;BME280;3594;42.152;24.714;2023-07-08T07:49:21;62656.91;;;27.71;nan
7105;BME280;3594;42.152;24.714;2023-07-08T07:51:47;62775.03;;;27.76;nan
7105;BME280;3594;42.152;24.714;2023-07-08T07:54:13;62574.91;;;27.59;nan
7105;BME280;3594;42.152;24.714;2023-07-08T07:56:39;62673.94;;;27.79;nan
7105;BME280;3594;42.152;24.714;2023-07-08T07:59:04;62757.78;;;28.04;nan
7105;BME280;3594;42.152;24.714;2023-07-08T08:01:30;62676.78;;;27.70;nan
7105;BME280;3594;42.152;24.714;2023-07-08T08:03:55;62724.16;;;27.65;nan
7105;BME280;3594;42.152;24.714;2023-07-08T08:06:20;62589.66;;;27.65;nan
7105;BME280;3594;42.152;24.714;2023-07-08T08:08:46;62735.31;;;27.61;nan
7105;BME280;3594;42.152;24.714;2023-07-08T08:11:11;62614.34;;;27.82;nan
7105;BME280;3594;42.152;24.714;2023-07-08T08:13:37;62612.88;;;27.95;nan
7105;BME280;3594;42.152;24.714;2023-07-08T08:16:03;64364.53;;;26.37;nan
7105;BME280;3594;42.152;24.714;2023-07-08T08:18:29;62762.38;;;28.36;nan
7105;BME280;3594;42.152;24.714;2023-07-08T08:20:55;62787.69;;;27.98;nan
7105;BME280;3594;42.152;24.714;2023-07-08T08:23:20;62725.69;;;28.32;nan
7105;BME280;3594;42.152;24.714;2023-07-08T08:25:46;62759.31;;;28.43;nan
7105;BME280;3594;42.152;24.714;2023-07-08T08:28:11;62805.00;;;28.09;nan
7105;BME280;3594;42.152;24.714;2023-07-08T08:30:37;62728.19;;;28.25;nan
7105;BME280;3594;42.152;24.714;2023-07-08T08:33:03;62890.72;;;28.47;nan
7105;BME280;3594;42.152;24.714;2023-07-08T08:35:28;62779.22;;;28.42;nan
7105;BME280;3594;42.152;24.714;2023-07-08T08:37:53;62843.72;;;28.73;nan
7105;BME280;3594;42.152;24.714;2023-07-08T08:40:19;62788.34;;;28.38;nan
7105;BME280;3594;42.152;24.714;2023-07-08T08:45:19;62793.06;;;28.77;nan
7105;BME280;3594;42.152;24.714;2023-07-08T08:47:49;62857.09;;;29.31;nan
7105;BME280;3594;42.152;24.714;2023-07-08T08:50:34;62948.31;;;29.49;nan
7105;BME280;3594;42.152;24.714;2023-07-08T08:53:04;63000.66;;;29.51;nan
7105;BME280;3594;42.152;24.714;2023-07-08T08:55:31;62960.25;;;29.92;nan
7105;BME280;3594;42.152;24.714;2023-07-08T09:01:02;62916.13;;;29.49;nan
7105;BME280;3594;42.152;24.714;2023-07-08T09:06:10;62814.00;;;28.82;nan
7105;BME280;3594;42.152;24.714;2023-07-08T09:08:36;62939.03;;;29.02;nan
7105;BME280;3594;42.152;24.714;2023-07-08T09:13:40;62962.41;;;28.43;nan
7105;BME280;3594;42.152;24.714;2023-07-08T09:21:22;62787.59;;;28.86;nan
7105;BME280;3594;42.152;24.714;2023-07-08T09:23:55;62735.72;;;28.66;nan
7105;BME280;3594;42.152;24.714;2023-07-08T09:26:24;62822.75;;;28.96;nan
7105;BME280;3594;42.152;24.714;2023-07-08T09:28:51;62883.78;;;29.02;nan
7105;BME280;3594;42.152;24.714;2023-07-08T09:31:23;62917.47;;;29.13;nan
7105;BME280;3594;42.152;24.714;2023-07-08T09:33:54;62796.44;;;28.96;nan
7105;BME280;3594;42.152;24.714;2023-07-08T09:36:29;62979.97;;;29.33;nan
7105;BME280;3594;42.152;24.714;2023-07-08T09:38:54;63037.81;;;29.65;nan
7105;BME280;3594;42.152;24.714;2023-07-08T09:41:31;62922.66;;;29.57;nan
7105;BME280;3594;42.152;24.714;2023-07-08T09:44:17;62924.78;;;29.79;nan
7105;BME280;3594;42.152;24.714;2023-07-08T09:46:44;63021.63;;;29.56;nan
7105;BME280;3594;42.152;24.714;2023-07-08T09:49:34;63042.88;;;29.63;nan
7105;BME280;3594;42.152;24.714;2023-07-08T09:52:01;63181.84;;;29.83;nan
7105;BME280;3594;42.152;24.714;2023-07-08T09:54:27;62996.03;;;29.75;nan
7105;BME280;3594;42.152;24.714;2023-07-08T09:59:29;62904.91;;;29.53;nan
7105;BME280;3594;42.152;24.714;2023-07-08T10:01:59;62990.84;;;29.59;nan
7105;BME280;3594;42.152;24.714;2023-07-08T10:04:26;62957.78;;;29.44;nan
7105;BME280;3594;42.152;24.714;2023-07-08T10:06:54;62853.63;;;29.28;nan
7105;BME280;3594;42.152;24.714;2023-07-08T10:09:23;62939.16;;;29.53;nan
7105;BME280;3594;42.152;24.714;2023-07-08T10:12:00;62967.84;;;29.38;nan
7105;BME280;3594;42.152;24.714;2023-07-08T10:16:57;62944.19;;;29.50;nan
7105;BME280;3594;42.152;24.714;2023-07-08T10:19:23;62979.97;;;29.61;nan
7105;BME280;3594;42.152;24.714;2023-07-08T10:22:17;63024.53;;;29.42;nan
7105;BME280;3594;42.152;24.714;2023-07-08T10:33:13;62892.94;;;29.37;nan
7105;BME280;3594;42.152;24.714;2023-07-08T10:36:09;62973.47;;;29.76;nan
7105;BME280;3594;42.152;24.714;2023-07-08T10:41:20;62965.38;;;29.85;nan
7105;BME280;3594;42.152;24.714;2023-07-08T10:44:12;62993.88;;;30.08;nan
7105;BME280;3594;42.152;24.714;2023-07-08T10:52:39;63098.19;;;30.07;nan
7105;BME280;3594;42.152;24.714;2023-07-08T11:06:10;62963.66;;;30.23;nan
7105;BME280;3594;42.152;24.714;2023-07-08T11:08:46;63018.97;;;30.39;nan
7105;BME280;3594;42.152;24.714;2023-07-08T11:14:11;63085.00;;;30.62;nan
7105;BME280;3594;42.152;24.714;2023-07-08T11:17:10;63139.59;;;30.87;nan
7105;BME280;3594;42.152;24.714;2023-07-08T11:22:34;63072.41;;;30.35;nan
7105;BME280;3594;42.152;24.714;2023-07-08T11:25:02;62992.63;;;30.51;nan
7105;BME280;3594;42.152;24.714;2023-07-08T11:27:35;63084.69;;;30.64;nan
7105;BME280;3594;42.152;24.714;2023-07-08T11:30:08;63301.84;;;30.56;nan
7105;BME280;3594;42.152;24.714;2023-07-08T11:32:38;63152.19;;;30.47;nan
7105;BME280;3594;42.152;24.714;2023-07-08T11:35:07;63153.34;;;30.48;nan
7105;BME280;3594;42.152;24.714;2023-07-08T11:37:39;62767.72;;;28.60;nan
7105;BME280;3594;42.152;24.714;2023-07-08T11:42:40;63228.13;;;30.91;nan
7105;BME280;3594;42.152;24.714;2023-07-08T11:45:30;63234.84;;;30.78;nan
7105;BME280;3594;42.152;24.714;2023-07-08T11:48:13;63125.72;;;30.91;nan
7105;BME280;3594;42.152;24.714;2023-07-08T11:50:42;63125.91;;;31.10;nan
7105;BME280;3594;42.152;24.714;2023-07-08T11:53:13;63247.63;;;31.40;nan
7105;BME280;3594;42.152;24.714;2023-07-08T11:55:59;63264.88;;;31.44;nan
7105;BME280;3594;42.152;24.714;2023-07-08T11:58:27;63277.56;;;31.27;nan
7105;BME280;3594;42.152;24.714;2023-07-08T12:01:22;63222.47;;;31.37;nan
7105;BME280;3594;42.152;24.714;2023-07-08T12:03:50;63238.50;;;31.28;nan
7105;BME280;3594;42.152;24.714;2023-07-08T12:08:54;63187.25;;;31.22;nan
7105;BME280;3594;42.152;24.714;2023-07-08T12:11:27;63208.19;;;31.59;nan
7105;BME280;3594;42.152;24.714;2023-07-08T12:13:55;63146.47;;;31.61;nan
7105;BME280;3594;42.152;24.714;2023-07-08T12:16:22;63342.22;;;31.68;nan
7105;BME280;3594;42.152;24.714;2023-07-08T12:18:48;63265.38;;;31.21;nan
7105;BME280;3594;42.152;24.714;2023-07-08T12:21:15;63209.88;;;31.49;nan
7105;BME280;3594;42.152;24.714;2023-07-08T12:23:47;63342.34;;;31.47;nan
7105;BME280;3594;42.152;24.714;2023-07-08T12:26:12;63383.03;;;31.96;nan
7105;BME280;3594;42.152;24.714;2023-07-08T12:28:39;63211.66;;;31.62;nan
7105;BME280;3594;42.152;24.714;2023-07-08T12:31:19;63285.00;;;31.50;nan
7105;BME280;3594;42.152;24.714;2023-07-08T12:33:46;63376.13;;;29.59;nan
7105;BME280;3594;42.152;24.714;2023-07-08T12:36:18;63115.38;;;30.94;nan
7105;BME280;3594;42.152;24.714;2023-07-08T12:38:45;63156.91;;;31.14;nan
7105;BME280;3594;42.152;24.714;2023-07-08T12:41:16;63180.34;;;31.55;nan
7105;BME280;3594;42.152;24.714;2023-07-08T12:43:42;63362.94;;;32.02;nan
7105;BME280;3594;42.152;24.714;2023-07-08T12:46:12;63533.75;;;31.85;nan
7105;BME280;3594;42.152;24.714;2023-07-08T12:48:38;63278.22;;;31.79;nan
7105;BME280;3594;42.152;24.714;2023-07-08T12:51:06;63403.13;;;31.91;nan
7105;BME280;3594;42.152;24.714;2023-07-08T12:53:31;63353.81;;;32.17;nan
7105;BME280;3594;42.152;24.714;2023-07-08T12:56:00;63118.22;;;30.17;nan
7105;BME280;3594;42.152;24.714;2023-07-08T12:58:29;64874.34;;;29.60;nan
7105;BME280;3594;42.152;24.714;2023-07-08T13:00:57;63316.22;;;31.89;nan
7105;BME280;3594;42.152;24.714;2023-07-08T13:03:26;63377.28;;;31.91;nan
7105;BME280;3594;42.152;24.714;2023-07-08T13:05:53;63365.19;;;31.65;nan
7105;BME280;3594;42.152;24.714;2023-07-08T13:08:21;63468.72;;;31.42;nan
7105;BME280;3594;42.152;24.714;2023-07-08T13:10:51;62999.22;;;30.31;nan
7105;BME280;3594;42.152;24.714;2023-07-08T13:13:22;63006.75;;;29.54;nan
7105;BME280;3594;42.152;24.714;2023-07-08T13:15:49;62808.19;;;28.26;nan
7105;BME280;3594;42.152;24.714;2023-07-08T13:18:19;62678.44;;;28.16;nan
7105;BME280;3594;42.152;24.714;2023-07-08T13:20:52;62493.34;;;26.89;nan
7105;BME280;3594;42.152;24.714;2023-07-08T13:23:19;62451.47;;;25.89;nan
7105;BME280;3594;42.152;24.714;2023-07-08T13:25:48;62280.31;;;25.40;nan
7105;BME280;3594;42.152;24.714;2023-07-08T13:28:22;62276.94;;;24.21;nan
7105;BME280;3594;42.152;24.714;2023-07-08T13:31:17;62162.88;;;23.92;nan
7105;BME280;3594;42.152;24.714;2023-07-08T13:33:51;62101.88;;;24.09;nan
7105;BME280;3594;42.152;24.714;2023-07-08T13:36:19;62352.97;;;24.51;nan
7105;BME280;3594;42.152;24.714;2023-07-08T13:38:46;62079.50;;;24.38;nan
7105;BME280;3594;42.152;24.714;2023-07-08T13:41:18;62251.72;;;24.91;nan
7105;BME280;3594;42.152;24.714;2023-07-08T13:43:44;62384.53;;;25.19;nan
7105;BME280;3594;42.152;24.714;2023-07-08T13:46:53;62347.44;;;25.41;nan
7105;BME280;3594;42.152;24.714;2023-07-08T13:49:24;62301.91;;;25.08;nan
7105;BME280;3594;42.152;24.714;2023-07-08T13:51:50;62254.56;;;24.94;nan
7105;BME280;3594;42.152;24.714;2023-07-08T13:54:26;62239.59;;;25.01;nan
7105;BME280;3594;42.152;24.714;2023-07-08T13:57:00;62249.22;;;24.87;nan
7105;BME280;3594;42.152;24.714;2023-07-08T13:59:26;62244.63;;;25.11;nan
7105;BME280;3594;42.152;24.714;2023-07-08T14:01:54;62335.97;;;25.47;nan
7105;BME280;3594;42.152;24.714;2023-07-08T14:04:32;62311.28;;;25.46;nan
7105;BME280;3594;42.152;24.714;2023-07-08T14:06:58;62328.34;;;25.78;nan
7105;BME280;3594;42.152;24.714;2023-07-08T14:09:24;62426.56;;;25.70;nan
7105;BME280;3594;42.152;24.714;2023-07-08T14:11:51;62404.22;;;26.22;nan
7105;BME280;3594;42.152;24.714;2023-07-08T14:14:18;62389.13;;;26.06;nan
7105;BME280;3594;42.152;24.714;2023-07-08T14:16:46;62509.66;;;26.18;nan
7105;BME280;3594;42.152;24.714;2023-07-08T14:19:24;62468.75;;;26.67;nan
7105;BME280;3594;42.152;24.714;2023-07-08T14:21:55;62460.25;;;26.44;nan
7105;BME280;3594;42.152;24.714;2023-07-08T14:24:21;62577.53;;;26.31;nan
7105;BME280;3594;42.152;24.714;2023-07-08T14:26:47;62378.16;;;26.29;nan
7105;BME280;3594;42.152;24.714;2023-07-08T14:29:13;62413.66;;;26.16;nan
7105;BME280;3594;42.152;24.714;2023-07-08T14:31:40;62463.06;;;26.18;nan
7105;BME280;3594;42.152;24.714;2023-07-08T14:34:15;62397.50;;;25.95;nan
7105;BME280;3594;42.152;24.714;2023-07-08T14:36:42;62460.97;;;26.23;nan
7105;BME280;3594;42.152;24.714;2023-07-08T14:39:15;62404.75;;;26.11;nan
7105;BME280;3594;42.152;24.714;2023-07-08T14:41:42;62562.66;;;26.62;nan